Wolverine Lake, Michigan
Current Conditions -  °F | °C
As of 8:21 AM on Tuesday 21 Oct 2014 (Local Time) from KPTK Reporting Station
Overcast Overcast  
Wind Chill: 40°   Ceiling: 1400
Heat Index: 45°   Visibility: 10mi
Dew Point: 42°   Wind: 9mph
Humidity: 90%   Direction: 350°N
Pressure: 29.96"   Gusts: NA
Location:  42.5503°N, 83.474°W
Report Text: KPTK 211221Z 35008KT 10SM FEW009 BKN014 OVC025 07/06 A2996 RMK AO2 DZE16 P0000 T00720056
Loading
Personal Weather Stations






























Interactive Weather Map
Tropical Storm Tracking
New forecast layout! Learn more

10-Day Weather Forecast

Advertisements
Track Severe Weather on mobile